sensor_id;sensor_type;location;lat;lon;timestamp;temperature;humidity
3842;DHT22;1936;47.074;15.336;2023-05-29T00:00:23;15.40;83.00
3842;DHT22;1936;47.074;15.336;2023-05-29T00:02:28;15.50;82.70
3842;DHT22;1936;47.074;15.336;2023-05-29T00:04:32;15.50;82.30
3842;DHT22;1936;47.074;15.336;2023-05-29T00:06:35;15.50;82.00
3842;DHT22;1936;47.074;15.336;2023-05-29T00:08:39;15.40;82.20
3842;DHT22;1936;47.074;15.336;2023-05-29T00:10:42;15.50;82.30
3842;DHT22;1936;47.074;15.336;2023-05-29T00:12:45;15.40;82.20
3842;DHT22;1936;47.074;15.336;2023-05-29T00:14:49;15.50;82.00
3842;DHT22;1936;47.074;15.336;2023-05-29T00:16:52;15.50;81.90
3842;DHT22;1936;47.074;15.336;2023-05-29T00:18:57;15.50;82.50
3842;DHT22;1936;47.074;15.336;2023-05-29T00:21:01;15.40;83.30
3842;DHT22;1936;47.074;15.336;2023-05-29T00:23:05;15.40;82.80
3842;DHT22;1936;47.074;15.336;2023-05-29T00:25:09;15.40;82.90
3842;DHT22;1936;47.074;15.336;2023-05-29T00:27:13;15.50;82.70
3842;DHT22;1936;47.074;15.336;2023-05-29T00:29:16;15.50;82.40
3842;DHT22;1936;47.074;15.336;2023-05-29T00:31:20;15.60;82.30
3842;DHT22;1936;47.074;15.336;2023-05-29T00:33:23;15.70;81.70
3842;DHT22;1936;47.074;15.336;2023-05-29T00:35:28;15.60;82.20
3842;DHT22;1936;47.074;15.336;2023-05-29T00:37:31;15.60;82.20
3842;DHT22;1936;47.074;15.336;2023-05-29T00:39:35;15.50;82.40
3842;DHT22;1936;47.074;15.336;2023-05-29T00:41:38;15.50;82.00
3842;DHT22;1936;47.074;15.336;2023-05-29T00:43:41;15.40;82.60
3842;DHT22;1936;47.074;15.336;2023-05-29T00:45:45;15.50;82.40
3842;DHT22;1936;47.074;15.336;2023-05-29T00:47:48;15.50;82.40
3842;DHT22;1936;47.074;15.336;2023-05-29T00:49:52;15.40;82.70
3842;DHT22;1936;47.074;15.336;2023-05-29T00:51:59;15.40;82.80
3842;DHT22;1936;47.074;15.336;2023-05-29T00:54:03;15.40;83.10
3842;DHT22;1936;47.074;15.336;2023-05-29T00:56:07;15.30;83.50
3842;DHT22;1936;47.074;15.336;2023-05-29T00:58:11;15.50;83.10
3842;DHT22;1936;47.074;15.336;2023-05-29T01:00:15;15.50;82.50
3842;DHT22;1936;47.074;15.336;2023-05-29T01:02:20;15.50;82.50
3842;DHT22;1936;47.074;15.336;2023-05-29T01:04:25;15.50;82.50
3842;DHT22;1936;47.074;15.336;2023-05-29T01:06:29;15.60;82.30
3842;DHT22;1936;47.074;15.336;2023-05-29T01:08:34;15.60;82.30
3842;DHT22;1936;47.074;15.336;2023-05-29T01:10:37;15.50;81.90
3842;DHT22;1936;47.074;15.336;2023-05-29T01:12:44;15.40;82.90
3842;DHT22;1936;47.074;15.336;2023-05-29T01:15:01;15.50;82.60
3842;DHT22;1936;47.074;15.336;2023-05-29T01:17:11;15.50;82.40
3842;DHT22;1936;47.074;15.336;2023-05-29T01:19:30;15.50;82.20
3842;DHT22;1936;47.074;15.336;2023-05-29T01:21:51;15.30;83.50
3842;DHT22;1936;47.074;15.336;2023-05-29T01:24:06;15.30;83.00
3842;DHT22;1936;47.074;15.336;2023-05-29T01:28:33;15.20;82.90
3842;DHT22;1936;47.074;15.336;2023-05-29T01:30:40;15.20;82.90
3842;DHT22;1936;47.074;15.336;2023-05-29T01:32:45;15.10;82.90
3842;DHT22;1936;47.074;15.336;2023-05-29T01:34:48;15.00;83.80
3842;DHT22;1936;47.074;15.336;2023-05-29T01:36:51;15.00;84.30
3842;DHT22;1936;47.074;15.336;2023-05-29T01:38:56;15.00;84.00
3842;DHT22;1936;47.074;15.336;2023-05-29T01:41:00;15.00;84.40
3842;DHT22;1936;47.074;15.336;2023-05-29T01:43:04;15.00;84.80
3842;DHT22;1936;47.074;15.336;2023-05-29T01:45:10;15.10;84.50
3842;DHT22;1936;47.074;15.336;2023-05-29T01:47:15;15.20;84.40
3842;DHT22;1936;47.074;15.336;2023-05-29T01:49:19;15.30;84.00
3842;DHT22;1936;47.074;15.336;2023-05-29T01:51:23;15.30;84.30
3842;DHT22;1936;47.074;15.336;2023-05-29T01:53:26;15.30;84.50
3842;DHT22;1936;47.074;15.336;2023-05-29T01:55:30;15.30;84.10
3842;DHT22;1936;47.074;15.336;2023-05-29T01:57:33;15.30;83.90
3842;DHT22;1936;47.074;15.336;2023-05-29T01:59:37;15.30;84.00
3842;DHT22;1936;47.074;15.336;2023-05-29T02:01:42;15.40;83.80
3842;DHT22;1936;47.074;15.336;2023-05-29T02:03:45;15.20;83.90
3842;DHT22;1936;47.074;15.336;2023-05-29T02:05:49;15.10;84.50
3842;DHT22;1936;47.074;15.336;2023-05-29T02:07:52;15.00;85.10
3842;DHT22;1936;47.074;15.336;2023-05-29T02:09:56;15.00;85.20
3842;DHT22;1936;47.074;15.336;2023-05-29T02:11:59;15.20;84.50
3842;DHT22;1936;47.074;15.336;2023-05-29T02:14:02;15.20;84.20
3842;DHT22;1936;47.074;15.336;2023-05-29T02:16:06;15.20;84.00
3842;DHT22;1936;47.074;15.336;2023-05-29T02:18:14;15.10;84.30
3842;DHT22;1936;47.074;15.336;2023-05-29T02:20:19;15.00;85.30
3842;DHT22;1936;47.074;15.336;2023-05-29T02:22:22;15.00;85.40
3842;DHT22;1936;47.074;15.336;2023-05-29T02:24:26;15.00;85.50
3842;DHT22;1936;47.074;15.336;2023-05-29T02:26:29;15.00;85.40
3842;DHT22;1936;47.074;15.336;2023-05-29T02:28:33;15.10;84.90
3842;DHT22;1936;47.074;15.336;2023-05-29T02:30:37;15.00;85.00
3842;DHT22;1936;47.074;15.336;2023-05-29T02:32:40;15.10;84.50
3842;DHT22;1936;47.074;15.336;2023-05-29T02:34:45;15.00;84.80
3842;DHT22;1936;47.074;15.336;2023-05-29T02:36:49;15.00;85.10
3842;DHT22;1936;47.074;15.336;2023-05-29T02:38:54;15.00;85.40
3842;DHT22;1936;47.074;15.336;2023-05-29T02:40:57;15.00;85.30
3842;DHT22;1936;47.074;15.336;2023-05-29T02:43:00;14.90;85.80
3842;DHT22;1936;47.074;15.336;2023-05-29T02:45:05;14.90;85.80
3842;DHT22;1936;47.074;15.336;2023-05-29T02:47:08;14.90;85.40
3842;DHT22;1936;47.074;15.336;2023-05-29T02:49:12;15.00;85.20
3842;DHT22;1936;47.074;15.336;2023-05-29T02:51:17;14.90;85.10
3842;DHT22;1936;47.074;15.336;2023-05-29T02:53:20;14.90;85.60
3842;DHT22;1936;47.074;15.336;2023-05-29T02:55:23;14.90;85.30
3842;DHT22;1936;47.074;15.336;2023-05-29T02:57:27;14.90;85.20
3842;DHT22;1936;47.074;15.336;2023-05-29T02:59:30;14.90;85.10
3842;DHT22;1936;47.074;15.336;2023-05-29T03:01:35;14.80;85.70
3842;DHT22;1936;47.074;15.336;2023-05-29T03:03:39;14.90;85.00
3842;DHT22;1936;47.074;15.336;2023-05-29T03:05:43;14.80;85.00
3842;DHT22;1936;47.074;15.336;2023-05-29T03:07:48;14.70;85.20
3842;DHT22;1936;47.074;15.336;2023-05-29T03:09:51;14.80;85.40
3842;DHT22;1936;47.074;15.336;2023-05-29T03:11:55;14.70;85.50
3842;DHT22;1936;47.074;15.336;2023-05-29T03:13:59;14.70;85.50
3842;DHT22;1936;47.074;15.336;2023-05-29T03:16:02;14.70;85.20
3842;DHT22;1936;47.074;15.336;2023-05-29T03:18:06;14.70;85.50
3842;DHT22;1936;47.074;15.336;2023-05-29T03:20:10;14.70;85.50
3842;DHT22;1936;47.074;15.336;2023-05-29T03:22:14;14.70;85.60
3842;DHT22;1936;47.074;15.336;2023-05-29T03:24:19;14.80;85.20
3842;DHT22;1936;47.074;15.336;2023-05-29T03:26:22;14.70;85.00
3842;DHT22;1936;47.074;15.336;2023-05-29T03:28:26;14.60;85.40
3842;DHT22;1936;47.074;15.336;2023-05-29T03:30:29;14.50;86.60
3842;DHT22;1936;47.074;15.336;2023-05-29T03:32:32;14.60;86.50
3842;DHT22;1936;47.074;15.336;2023-05-29T03:34:36;14.60;85.90
3842;DHT22;1936;47.074;15.336;2023-05-29T03:36:39;14.60;86.10
3842;DHT22;1936;47.074;15.336;2023-05-29T03:38:43;14.70;86.70
3842;DHT22;1936;47.074;15.336;2023-05-29T03:40:48;14.60;86.30
3842;DHT22;1936;47.074;15.336;2023-05-29T03:42:51;14.70;86.00
3842;DHT22;1936;47.074;15.336;2023-05-29T03:44:54;14.80;85.80
3842;DHT22;1936;47.074;15.336;2023-05-29T03:46:58;14.80;86.40
3842;DHT22;1936;47.074;15.336;2023-05-29T03:49:01;14.70;86.10
3842;DHT22;1936;47.074;15.336;2023-05-29T03:51:05;14.80;86.60
3842;DHT22;1936;47.074;15.336;2023-05-29T03:53:08;14.80;85.70
3842;DHT22;1936;47.074;15.336;2023-05-29T03:55:12;14.80;86.00
3842;DHT22;1936;47.074;15.336;2023-05-29T03:57:18;14.80;86.00
3842;DHT22;1936;47.074;15.336;2023-05-29T03:59:21;14.80;86.40
3842;DHT22;1936;47.074;15.336;2023-05-29T04:01:24;14.90;85.80
3842;DHT22;1936;47.074;15.336;2023-05-29T04:03:28;14.90;85.70
3842;DHT22;1936;47.074;15.336;2023-05-29T04:05:33;15.00;85.30
3842;DHT22;1936;47.074;15.336;2023-05-29T04:07:36;14.90;86.20
3842;DHT22;1936;47.074;15.336;2023-05-29T04:09:40;15.00;85.40
3842;DHT22;1936;47.074;15.336;2023-05-29T04:11:43;15.10;85.90
3842;DHT22;1936;47.074;15.336;2023-05-29T04:13:49;15.00;85.50
3842;DHT22;1936;47.074;15.336;2023-05-29T04:15:52;15.10;85.50
3842;DHT22;1936;47.074;15.336;2023-05-29T04:17:56;15.10;85.30
3842;DHT22;1936;47.074;15.336;2023-05-29T04:20:00;15.20;85.10
3842;DHT22;1936;47.074;15.336;2023-05-29T04:22:10;15.20;85.30
3842;DHT22;1936;47.074;15.336;2023-05-29T04:24:13;15.30;84.40
3842;DHT22;1936;47.074;15.336;2023-05-29T04:26:17;15.40;84.20
3842;DHT22;1936;47.074;15.336;2023-05-29T04:28:20;15.60;84.00
3842;DHT22;1936;47.074;15.336;2023-05-29T04:30:26;15.60;83.10
3842;DHT22;1936;47.074;15.336;2023-05-29T04:32:30;15.80;83.30
3842;DHT22;1936;47.074;15.336;2023-05-29T04:34:34;15.80;83.50
3842;DHT22;1936;47.074;15.336;2023-05-29T04:36:38;15.80;82.50
3842;DHT22;1936;47.074;15.336;2023-05-29T04:38:41;15.80;82.30
3842;DHT22;1936;47.074;15.336;2023-05-29T04:40:47;15.90;82.30
3842;DHT22;1936;47.074;15.336;2023-05-29T04:42:50;16.00;82.00
3842;DHT22;1936;47.074;15.336;2023-05-29T04:44:54;16.10;81.50
3842;DHT22;1936;47.074;15.336;2023-05-29T04:46:59;16.20;81.40
3842;DHT22;1936;47.074;15.336;2023-05-29T04:49:05;16.30;81.10
3842;DHT22;1936;47.074;15.336;2023-05-29T04:51:08;16.20;80.80
3842;DHT22;1936;47.074;15.336;2023-05-29T04:53:13;16.40;80.70
3842;DHT22;1936;47.074;15.336;2023-05-29T04:55:16;16.50;80.50
3842;DHT22;1936;47.074;15.336;2023-05-29T04:57:19;16.70;78.40
3842;DHT22;1936;47.074;15.336;2023-05-29T04:59:23;16.80;79.30
3842;DHT22;1936;47.074;15.336;2023-05-29T05:01:26;16.70;78.70
3842;DHT22;1936;47.074;15.336;2023-05-29T05:03:32;16.80;78.70
3842;DHT22;1936;47.074;15.336;2023-05-29T05:05:36;16.80;78.60
3842;DHT22;1936;47.074;15.336;2023-05-29T05:07:39;17.00;78.90
3842;DHT22;1936;47.074;15.336;2023-05-29T05:09:43;17.00;78.50
3842;DHT22;1936;47.074;15.336;2023-05-29T05:11:46;17.30;78.80
3842;DHT22;1936;47.074;15.336;2023-05-29T05:13:50;17.50;77.20
3842;DHT22;1936;47.074;15.336;2023-05-29T05:15:53;17.70;75.70
3842;DHT22;1936;47.074;15.336;2023-05-29T05:17:57;17.60;76.00
3842;DHT22;1936;47.074;15.336;2023-05-29T05:20:02;17.70;76.20
3842;DHT22;1936;47.074;15.336;2023-05-29T05:22:08;17.80;76.00
3842;DHT22;1936;47.074;15.336;2023-05-29T05:24:11;17.80;75.40
3842;DHT22;1936;47.074;15.336;2023-05-29T05:26:14;17.80;75.50
3842;DHT22;1936;47.074;15.336;2023-05-29T05:28:18;17.80;75.50
3842;DHT22;1936;47.074;15.336;2023-05-29T05:30:21;18.00;75.50
3842;DHT22;1936;47.074;15.336;2023-05-29T05:32:24;18.20;73.90
3842;DHT22;1936;47.074;15.336;2023-05-29T05:34:28;18.10;73.60
3842;DHT22;1936;47.074;15.336;2023-05-29T05:36:33;18.20;72.80
3842;DHT22;1936;47.074;15.336;2023-05-29T05:38:36;18.20;73.30
3842;DHT22;1936;47.074;15.336;2023-05-29T05:40:39;18.30;73.40
3842;DHT22;1936;47.074;15.336;2023-05-29T05:42:47;18.30;72.90
3842;DHT22;1936;47.074;15.336;2023-05-29T05:44:50;18.70;73.20
3842;DHT22;1936;47.074;15.336;2023-05-29T05:46:54;19.00;72.10
3842;DHT22;1936;47.074;15.336;2023-05-29T05:48:57;19.00;71.00
3842;DHT22;1936;47.074;15.336;2023-05-29T05:51:02;19.20;71.20
3842;DHT22;1936;47.074;15.336;2023-05-29T05:53:07;19.30;69.40
3842;DHT22;1936;47.074;15.336;2023-05-29T05:55:10;19.40;69.60
3842;DHT22;1936;47.074;15.336;2023-05-29T05:57:14;19.60;68.70
3842;DHT22;1936;47.074;15.336;2023-05-29T05:59:17;19.70;67.40
3842;DHT22;1936;47.074;15.336;2023-05-29T06:01:20;19.90;68.40
3842;DHT22;1936;47.074;15.336;2023-05-29T06:03:24;20.00;67.40
3842;DHT22;1936;47.074;15.336;2023-05-29T06:05:28;20.20;66.30
3842;DHT22;1936;47.074;15.336;2023-05-29T06:07:31;20.30;66.30
3842;DHT22;1936;47.074;15.336;2023-05-29T06:09:37;20.30;66.90
3842;DHT22;1936;47.074;15.336;2023-05-29T06:11:40;20.40;65.30
3842;DHT22;1936;47.074;15.336;2023-05-29T06:13:44;20.40;65.10
3842;DHT22;1936;47.074;15.336;2023-05-29T06:15:47;20.20;65.10
3842;DHT22;1936;47.074;15.336;2023-05-29T06:17:51;20.40;64.50
3842;DHT22;1936;47.074;15.336;2023-05-29T06:19:57;20.60;66.00
3842;DHT22;1936;47.074;15.336;2023-05-29T06:22:00;20.70;63.90
3842;DHT22;1936;47.074;15.336;2023-05-29T06:24:04;21.10;62.70
3842;DHT22;1936;47.074;15.336;2023-05-29T06:26:09;21.40;63.60
3842;DHT22;1936;47.074;15.336;2023-05-29T06:28:13;21.50;62.70
3842;DHT22;1936;47.074;15.336;2023-05-29T06:30:17;21.60;60.70
3842;DHT22;1936;47.074;15.336;2023-05-29T06:32:20;21.60;59.80
3842;DHT22;1936;47.074;15.336;2023-05-29T06:34:23;21.30;60.80
3842;DHT22;1936;47.074;15.336;2023-05-29T06:36:27;21.30;60.10
3842;DHT22;1936;47.074;15.336;2023-05-29T06:38:30;21.20;60.40
3842;DHT22;1936;47.074;15.336;2023-05-29T06:40:33;21.50;61.00
3842;DHT22;1936;47.074;15.336;2023-05-29T06:42:38;21.60;61.00
3842;DHT22;1936;47.074;15.336;2023-05-29T06:44:41;21.70;60.00
3842;DHT22;1936;47.074;15.336;2023-05-29T06:46:45;22.10;58.90
3842;DHT22;1936;47.074;15.336;2023-05-29T06:48:48;22.20;58.70
3842;DHT22;1936;47.074;15.336;2023-05-29T06:50:51;22.60;57.80
3842;DHT22;1936;47.074;15.336;2023-05-29T06:52:54;22.60;56.00
3842;DHT22;1936;47.074;15.336;2023-05-29T06:54:59;22.80;57.20
3842;DHT22;1936;47.074;15.336;2023-05-29T06:57:03;22.90;56.30
3842;DHT22;1936;47.074;15.336;2023-05-29T06:59:13;23.10;57.60
3842;DHT22;1936;47.074;15.336;2023-05-29T07:01:17;23.60;57.70
3842;DHT22;1936;47.074;15.336;2023-05-29T07:03:20;23.70;53.10
3842;DHT22;1936;47.074;15.336;2023-05-29T07:05:26;24.20;52.30
3842;DHT22;1936;47.074;15.336;2023-05-29T07:07:29;25.00;52.30
3842;DHT22;1936;47.074;15.336;2023-05-29T07:09:32;25.30;51.00
3842;DHT22;1936;47.074;15.336;2023-05-29T07:11:37;25.70;47.80
3842;DHT22;1936;47.074;15.336;2023-05-29T07:13:40;26.10;48.40
3842;DHT22;1936;47.074;15.336;2023-05-29T07:15:45;26.70;48.60
3842;DHT22;1936;47.074;15.336;2023-05-29T07:17:49;27.10;46.60
3842;DHT22;1936;47.074;15.336;2023-05-29T07:19:52;27.50;46.00
3842;DHT22;1936;47.074;15.336;2023-05-29T07:21:56;27.80;45.00
3842;DHT22;1936;47.074;15.336;2023-05-29T07:23:59;28.10;43.60
3842;DHT22;1936;47.074;15.336;2023-05-29T07:26:03;28.10;41.20
3842;DHT22;1936;47.074;15.336;2023-05-29T07:28:06;27.60;41.30
3842;DHT22;1936;47.074;15.336;2023-05-29T07:30:23;29.20;43.70
3842;DHT22;1936;47.074;15.336;2023-05-29T07:32:28;31.00;39.00
3842;DHT22;1936;47.074;15.336;2023-05-29T07:34:32;32.00;35.10
3842;DHT22;1936;47.074;15.336;2023-05-29T07:36:36;32.40;34.20
3842;DHT22;1936;47.074;15.336;2023-05-29T07:38:39;33.20;33.10
3842;DHT22;1936;47.074;15.336;2023-05-29T07:40:42;33.20;32.10
3842;DHT22;1936;47.074;15.336;2023-05-29T07:42:46;33.20;29.70
3842;DHT22;1936;47.074;15.336;2023-05-29T07:44:49;32.20;31.30
3842;DHT22;1936;47.074;15.336;2023-05-29T07:46:52;30.30;35.80
3842;DHT22;1936;47.074;15.336;2023-05-29T07:48:57;28.50;37.80
3842;DHT22;1936;47.074;15.336;2023-05-29T07:51:01;27.70;36.90
3842;DHT22;1936;47.074;15.336;2023-05-29T07:53:04;27.20;39.20
3842;DHT22;1936;47.074;15.336;2023-05-29T07:55:08;26.10;40.30
3842;DHT22;1936;47.074;15.336;2023-05-29T07:57:16;26.40;42.00
3842;DHT22;1936;47.074;15.336;2023-05-29T07:59:19;26.70;42.70
3842;DHT22;1936;47.074;15.336;2023-05-29T08:01:23;27.20;44.50
3842;DHT22;1936;47.074;15.336;2023-05-29T08:03:28;28.10;42.00
3842;DHT22;1936;47.074;15.336;2023-05-29T08:05:37;28.80;40.10
3842;DHT22;1936;47.074;15.336;2023-05-29T08:07:40;29.80;36.20
3842;DHT22;1936;47.074;15.336;2023-05-29T08:09:45;30.60;37.90
3842;DHT22;1936;47.074;15.336;2023-05-29T08:11:49;31.30;33.80
3842;DHT22;1936;47.074;15.336;2023-05-29T08:13:52;31.40;33.60
3842;DHT22;1936;47.074;15.336;2023-05-29T08:15:55;32.10;35.30
3842;DHT22;1936;47.074;15.336;2023-05-29T08:18:03;31.10;32.80
3842;DHT22;1936;47.074;15.336;2023-05-29T08:20:07;30.60;36.10
3842;DHT22;1936;47.074;15.336;2023-05-29T08:22:14;31.00;36.90
3842;DHT22;1936;47.074;15.336;2023-05-29T08:24:18;30.00;36.70
3842;DHT22;1936;47.074;15.336;2023-05-29T08:26:22;29.80;36.10
3842;DHT22;1936;47.074;15.336;2023-05-29T08:28:25;30.20;36.30
3842;DHT22;1936;47.074;15.336;2023-05-29T08:30:29;29.40;34.70
3842;DHT22;1936;47.074;15.336;2023-05-29T08:32:32;30.60;35.80
3842;DHT22;1936;47.074;15.336;2023-05-29T08:34:36;31.00;36.20
3842;DHT22;1936;47.074;15.336;2023-05-29T08:36:39;32.40;31.20
3842;DHT22;1936;47.074;15.336;2023-05-29T08:38:44;32.90;34.20
3842;DHT22;1936;47.074;15.336;2023-05-29T08:40:48;33.00;33.80
3842;DHT22;1936;47.074;15.336;2023-05-29T08:42:57;33.70;32.00
3842;DHT22;1936;47.074;15.336;2023-05-29T08:45:03;33.30;32.90
3842;DHT22;1936;47.074;15.336;2023-05-29T08:47:07;33.10;34.00
3842;DHT22;1936;47.074;15.336;2023-05-29T08:49:13;33.30;29.90
3842;DHT22;1936;47.074;15.336;2023-05-29T08:51:20;33.70;34.00
3842;DHT22;1936;47.074;15.336;2023-05-29T08:53:25;33.90;28.60
3842;DHT22;1936;47.074;15.336;2023-05-29T08:55:31;33.30;29.30
3842;DHT22;1936;47.074;15.336;2023-05-29T08:57:37;33.70;29.70
3842;DHT22;1936;47.074;15.336;2023-05-29T08:59:43;33.70;31.30
3842;DHT22;1936;47.074;15.336;2023-05-29T09:01:47;34.50;28.90
3842;DHT22;1936;47.074;15.336;2023-05-29T09:03:50;34.80;30.80
3842;DHT22;1936;47.074;15.336;2023-05-29T09:05:58;35.70;29.40
3842;DHT22;1936;47.074;15.336;2023-05-29T09:08:02;35.60;26.70
3842;DHT22;1936;47.074;15.336;2023-05-29T09:10:07;35.80;30.80
3842;DHT22;1936;47.074;15.336;2023-05-29T09:12:12;36.30;26.30
3842;DHT22;1936;47.074;15.336;2023-05-29T09:14:34;35.90;27.40
3842;DHT22;1936;47.074;15.336;2023-05-29T09:16:41;36.30;26.60
3842;DHT22;1936;47.074;15.336;2023-05-29T09:18:45;36.20;28.90
3842;DHT22;1936;47.074;15.336;2023-05-29T09:20:48;36.20;28.50
3842;DHT22;1936;47.074;15.336;2023-05-29T09:22:53;36.30;28.60
3842;DHT22;1936;47.074;15.336;2023-05-29T09:24:58;36.20;29.90
3842;DHT22;1936;47.074;15.336;2023-05-29T09:27:02;36.00;25.80
3842;DHT22;1936;47.074;15.336;2023-05-29T09:29:07;35.60;27.10
3842;DHT22;1936;47.074;15.336;2023-05-29T09:31:14;35.80;28.70
3842;DHT22;1936;47.074;15.336;2023-05-29T09:33:19;36.30;28.80
3842;DHT22;1936;47.074;15.336;2023-05-29T09:35:23;36.30;28.10
3842;DHT22;1936;47.074;15.336;2023-05-29T09:37:26;34.70;27.60
3842;DHT22;1936;47.074;15.336;2023-05-29T09:39:31;35.70;32.90
3842;DHT22;1936;47.074;15.336;2023-05-29T09:41:34;35.90;28.00
3842;DHT22;1936;47.074;15.336;2023-05-29T09:43:38;36.00;32.20
3842;DHT22;1936;47.074;15.336;2023-05-29T09:45:46;37.20;32.00
3842;DHT22;1936;47.074;15.336;2023-05-29T09:47:51;37.30;25.10
3842;DHT22;1936;47.074;15.336;2023-05-29T09:49:54;36.30;28.50
3842;DHT22;1936;47.074;15.336;2023-05-29T09:51:58;36.30;26.10
3842;DHT22;1936;47.074;15.336;2023-05-29T09:54:13;36.10;28.60
3842;DHT22;1936;47.074;15.336;2023-05-29T09:56:17;36.50;30.00
3842;DHT22;1936;47.074;15.336;2023-05-29T09:58:21;35.80;25.90
3842;DHT22;1936;47.074;15.336;2023-05-29T10:00:25;35.80;26.00
3842;DHT22;1936;47.074;15.336;2023-05-29T10:02:30;35.90;29.20
3842;DHT22;1936;47.074;15.336;2023-05-29T10:04:33;35.30;31.00
3842;DHT22;1936;47.074;15.336;2023-05-29T10:06:38;35.90;27.00
3842;DHT22;1936;47.074;15.336;2023-05-29T10:08:45;35.80;32.50
3842;DHT22;1936;47.074;15.336;2023-05-29T10:10:55;36.10;28.10
3842;DHT22;1936;47.074;15.336;2023-05-29T10:13:01;35.90;28.00
3842;DHT22;1936;47.074;15.336;2023-05-29T10:15:11;35.80;25.60
3842;DHT22;1936;47.074;15.336;2023-05-29T10:17:15;36.00;27.50
3842;DHT22;1936;47.074;15.336;2023-05-29T10:19:26;35.50;26.80
3842;DHT22;1936;47.074;15.336;2023-05-29T10:21:31;34.30;27.60
3842;DHT22;1936;47.074;15.336;2023-05-29T10:23:37;33.70;29.80
3842;DHT22;1936;47.074;15.336;2023-05-29T10:25:43;33.20;30.00
3842;DHT22;1936;47.074;15.336;2023-05-29T10:27:50;32.50;29.10
3842;DHT22;1936;47.074;15.336;2023-05-29T10:29:58;32.60;30.00
3842;DHT22;1936;47.074;15.336;2023-05-29T10:32:12;32.70;31.90
3842;DHT22;1936;47.074;15.336;2023-05-29T10:34:30;33.20;30.90
3842;DHT22;1936;47.074;15.336;2023-05-29T10:36:37;33.40;30.80
3842;DHT22;1936;47.074;15.336;2023-05-29T10:38:45;32.90;32.80
3842;DHT22;1936;47.074;15.336;2023-05-29T10:40:49;32.90;31.10
3842;DHT22;1936;47.074;15.336;2023-05-29T10:42:53;31.90;28.50
3842;DHT22;1936;47.074;15.336;2023-05-29T10:45:00;31.90;31.90
3842;DHT22;1936;47.074;15.336;2023-05-29T10:47:07;31.20;34.50
3842;DHT22;1936;47.074;15.336;2023-05-29T10:49:16;31.30;33.60
3842;DHT22;1936;47.074;15.336;2023-05-29T10:51:28;31.00;32.50
3842;DHT22;1936;47.074;15.336;2023-05-29T10:53:33;30.60;32.90
3842;DHT22;1936;47.074;15.336;2023-05-29T10:55:42;29.80;35.20
3842;DHT22;1936;47.074;15.336;2023-05-29T10:57:47;29.20;36.20
3842;DHT22;1936;47.074;15.336;2023-05-29T11:00:07;29.10;36.00
3842;DHT22;1936;47.074;15.336;2023-05-29T11:02:18;30.00;39.40
3842;DHT22;1936;47.074;15.336;2023-05-29T11:04:26;30.20;38.90
3842;DHT22;1936;47.074;15.336;2023-05-29T11:06:35;31.40;36.00
3842;DHT22;1936;47.074;15.336;2023-05-29T11:08:43;31.90;36.50
3842;DHT22;1936;47.074;15.336;2023-05-29T11:10:57;32.50;35.40
3842;DHT22;1936;47.074;15.336;2023-05-29T11:13:03;32.30;29.50
3842;DHT22;1936;47.074;15.336;2023-05-29T11:15:10;33.00;32.30
3842;DHT22;1936;47.074;15.336;2023-05-29T11:17:32;32.60;32.10
3842;DHT22;1936;47.074;15.336;2023-05-29T11:19:35;32.70;31.90
3842;DHT22;1936;47.074;15.336;2023-05-29T11:21:57;32.20;31.00
3842;DHT22;1936;47.074;15.336;2023-05-29T11:24:05;31.90;33.30
3842;DHT22;1936;47.074;15.336;2023-05-29T11:26:09;30.90;32.30
3842;DHT22;1936;47.074;15.336;2023-05-29T11:28:14;30.70;31.20
3842;DHT22;1936;47.074;15.336;2023-05-29T11:30:18;31.40;36.10
3842;DHT22;1936;47.074;15.336;2023-05-29T11:32:21;31.20;32.00
3842;DHT22;1936;47.074;15.336;2023-05-29T11:34:28;31.30;33.80
3842;DHT22;1936;47.074;15.336;2023-05-29T11:36:33;31.50;33.70
3842;DHT22;1936;47.074;15.336;2023-05-29T11:38:38;30.90;36.90
3842;DHT22;1936;47.074;15.336;2023-05-29T11:40:41;31.40;33.10
3842;DHT22;1936;47.074;15.336;2023-05-29T11:42:46;31.40;31.70
3842;DHT22;1936;47.074;15.336;2023-05-29T11:44:50;31.70;39.70
3842;DHT22;1936;47.074;15.336;2023-05-29T11:47:00;31.20;33.80
3842;DHT22;1936;47.074;15.336;2023-05-29T11:49:06;31.50;33.50
3842;DHT22;1936;47.074;15.336;2023-05-29T11:51:11;31.40;35.00
3842;DHT22;1936;47.074;15.336;2023-05-29T11:53:14;31.40;35.50
3842;DHT22;1936;47.074;15.336;2023-05-29T11:55:20;30.80;29.60
3842;DHT22;1936;47.074;15.336;2023-05-29T11:57:25;30.80;31.00
3842;DHT22;1936;47.074;15.336;2023-05-29T11:59:30;30.90;37.70
3842;DHT22;1936;47.074;15.336;2023-05-29T12:01:34;31.20;35.00
3842;DHT22;1936;47.074;15.336;2023-05-29T12:03:39;31.80;33.70
3842;DHT22;1936;47.074;15.336;2023-05-29T12:05:47;31.90;33.40
3842;DHT22;1936;47.074;15.336;2023-05-29T12:07:55;31.10;30.60
3842;DHT22;1936;47.074;15.336;2023-05-29T12:10:09;30.40;31.50
3842;DHT22;1936;47.074;15.336;2023-05-29T12:12:14;30.40;35.40
3842;DHT22;1936;47.074;15.336;2023-05-29T12:14:17;30.80;30.90
3842;DHT22;1936;47.074;15.336;2023-05-29T12:16:20;30.50;34.60
3842;DHT22;1936;47.074;15.336;2023-05-29T12:18:24;30.20;33.70
3842;DHT22;1936;47.074;15.336;2023-05-29T12:20:28;30.00;33.90
3842;DHT22;1936;47.074;15.336;2023-05-29T12:22:36;29.90;35.40
3842;DHT22;1936;47.074;15.336;2023-05-29T12:24:40;29.60;32.00
3842;DHT22;1936;47.074;15.336;2023-05-29T12:26:45;29.40;33.80
3842;DHT22;1936;47.074;15.336;2023-05-29T12:28:51;29.10;36.20
3842;DHT22;1936;47.074;15.336;2023-05-29T12:30:59;28.30;36.80
3842;DHT22;1936;47.074;15.336;2023-05-29T12:33:02;28.30;35.40
3842;DHT22;1936;47.074;15.336;2023-05-29T12:35:17;28.70;35.60
3842;DHT22;1936;47.074;15.336;2023-05-29T12:37:22;28.90;33.10
3842;DHT22;1936;47.074;15.336;2023-05-29T12:39:25;29.10;33.40
3842;DHT22;1936;47.074;15.336;2023-05-29T12:41:32;30.20;36.10
3842;DHT22;1936;47.074;15.336;2023-05-29T12:43:36;30.30;29.50
3842;DHT22;1936;47.074;15.336;2023-05-29T12:45:40;30.30;35.00
3842;DHT22;1936;47.074;15.336;2023-05-29T12:47:45;30.70;31.80
3842;DHT22;1936;47.074;15.336;2023-05-29T12:49:49;30.40;31.60
3842;DHT22;1936;47.074;15.336;2023-05-29T12:51:52;29.40;28.50
3842;DHT22;1936;47.074;15.336;2023-05-29T12:53:56;28.90;30.70
3842;DHT22;1936;47.074;15.336;2023-05-29T12:56:00;28.50;37.10
3842;DHT22;1936;47.074;15.336;2023-05-29T12:58:06;28.60;33.10
3842;DHT22;1936;47.074;15.336;2023-05-29T13:00:13;28.80;38.70
3842;DHT22;1936;47.074;15.336;2023-05-29T13:02:18;29.10;32.10
3842;DHT22;1936;47.074;15.336;2023-05-29T13:04:23;29.10;30.80
3842;DHT22;1936;47.074;15.336;2023-05-29T13:06:26;28.90;32.30
3842;DHT22;1936;47.074;15.336;2023-05-29T13:08:30;28.90;33.40
3842;DHT22;1936;47.074;15.336;2023-05-29T13:10:33;29.20;29.30
3842;DHT22;1936;47.074;15.336;2023-05-29T13:12:37;29.30;34.30
3842;DHT22;1936;47.074;15.336;2023-05-29T13:14:41;29.60;30.50
3842;DHT22;1936;47.074;15.336;2023-05-29T13:16:47;29.10;39.40
3842;DHT22;1936;47.074;15.336;2023-05-29T13:18:52;29.50;37.60
3842;DHT22;1936;47.074;15.336;2023-05-29T13:20:56;28.80;33.20
3842;DHT22;1936;47.074;15.336;2023-05-29T13:22:59;29.00;32.40